Main page
METAR-TAF:

METAR-TAF

Airports :

Bella Coola Airport

Bella Coola, British Columbia, Canada

latitude: 52-23N, longitude: 126-35W, elevation: 35 m

Current weather observation

The report was made 27 minutes ago, at 13:00 UTC
Calm wind
Temperature 9°C
Humidity 100%
Pressure 1020 hPa
Visibility: 24.1 km
Few clouds at a height of 26000 ft

METAR: CYBD 201300Z 00000KT 15SM FEW260 09/09 A3011 RMK CC1 CC TR SLP200

Time: 06:27 (13:27 UTC)


TAF: missing

Weather observations and forecasts of more than 4000 airports (METAR and TAF reports).

The available stations are represented by yellow and red dots on the map.

Hover mouse over dot to see the name of the station.

Then click to see weather observations and forecasts.

To change the map : click on the green buttons with a black cross to zoom in, on the green button with a dash to zoom out, or on the green arrows for adjacent maps.


METAR-TAF: